Concord Township, Ohio
Current Conditions -  °F | °C
As of 1:45 PM on Monday 20 Oct 2014 (Local Time) from KCGF Reporting Station
Broken Clouds Broken Clouds  
Wind Chill: 57°   Ceiling: 12000
Heat Index: 57°   Visibility: 10mi
Dew Point: 48°   Wind: 14mph
Humidity: 72%   Direction: 190°S
Pressure: 29.85"   Gusts: NA
Location:  41.6763°N, 81.3297°W
Report Text: KCGF 201745Z 19012KT 10SM SCT070 BKN120 OVC160- 14/09 A2985
Loading
Personal Weather Stations






























Interactive Weather Map
Tropical Storm Tracking
New forecast layout! Learn more

10-Day Weather Forecast

Advertisements
Track Severe Weather on mobile